sensor_id;sensor_type;location;lat;lon;timestamp;temperature;humidity
80258;DHT22;69565;37.974;23.708;2023-06-26T00:02:19;29.40;42.40
80258;DHT22;69565;37.974;23.708;2023-06-26T00:04:44;29.40;42.30
80258;DHT22;69565;37.974;23.708;2023-06-26T00:07:11;29.40;42.30
80258;DHT22;69565;37.974;23.708;2023-06-26T00:09:36;29.40;42.30
80258;DHT22;69565;37.974;23.708;2023-06-26T00:12:02;29.40;42.20
80258;DHT22;69565;37.974;23.708;2023-06-26T00:14:29;29.40;42.20
80258;DHT22;69565;37.974;23.708;2023-06-26T00:16:55;29.40;42.20
80258;DHT22;69565;37.974;23.708;2023-06-26T00:19:21;29.40;42.20
80258;DHT22;69565;37.974;23.708;2023-06-26T00:21:46;29.40;42.30
80258;DHT22;69565;37.974;23.708;2023-06-26T00:24:17;29.40;42.30
80258;DHT22;69565;37.974;23.708;2023-06-26T00:26:46;29.40;42.30
80258;DHT22;69565;37.974;23.708;2023-06-26T00:29:12;29.40;42.40
80258;DHT22;69565;37.974;23.708;2023-06-26T00:31:37;29.40;42.50
80258;DHT22;69565;37.974;23.708;2023-06-26T00:34:05;29.30;42.50
80258;DHT22;69565;37.974;23.708;2023-06-26T00:36:31;29.30;42.50
80258;DHT22;69565;37.974;23.708;2023-06-26T00:38:58;29.30;42.60
80258;DHT22;69565;37.974;23.708;2023-06-26T00:41:24;29.30;42.60
80258;DHT22;69565;37.974;23.708;2023-06-26T00:43:49;29.30;42.70
80258;DHT22;69565;37.974;23.708;2023-06-26T00:46:16;29.30;42.70
80258;DHT22;69565;37.974;23.708;2023-06-26T00:48:43;29.30;42.80
80258;DHT22;69565;37.974;23.708;2023-06-26T00:51:10;29.30;42.80
80258;DHT22;69565;37.974;23.708;2023-06-26T00:53:35;29.30;42.80
80258;DHT22;69565;37.974;23.708;2023-06-26T00:56:05;29.30;42.80
80258;DHT22;69565;37.974;23.708;2023-06-26T00:58:31;29.30;42.80
80258;DHT22;69565;37.974;23.708;2023-06-26T01:00:57;29.20;42.70
80258;DHT22;69565;37.974;23.708;2023-06-26T01:03:24;29.20;42.60
80258;DHT22;69565;37.974;23.708;2023-06-26T01:05:52;29.30;42.60
80258;DHT22;69565;37.974;23.708;2023-06-26T01:08:18;29.30;42.60
80258;DHT22;69565;37.974;23.708;2023-06-26T01:10:45;29.20;42.40
80258;DHT22;69565;37.974;23.708;2023-06-26T01:13:15;29.20;42.40
80258;DHT22;69565;37.974;23.708;2023-06-26T01:15:41;29.30;42.50
80258;DHT22;69565;37.974;23.708;2023-06-26T01:18:08;29.30;42.60
80258;DHT22;69565;37.974;23.708;2023-06-26T01:20:38;29.20;42.50
80258;DHT22;69565;37.974;23.708;2023-06-26T01:23:17;29.30;42.40
80258;DHT22;69565;37.974;23.708;2023-06-26T01:28:20;29.20;42.30
80258;DHT22;69565;37.974;23.708;2023-06-26T01:30:47;29.20;42.50
80258;DHT22;69565;37.974;23.708;2023-06-26T01:33:13;29.20;42.60
80258;DHT22;69565;37.974;23.708;2023-06-26T01:35:40;29.20;42.60
80258;DHT22;69565;37.974;23.708;2023-06-26T01:38:32;29.20;42.50
80258;DHT22;69565;37.974;23.708;2023-06-26T01:40:58;29.30;42.40
80258;DHT22;69565;37.974;23.708;2023-06-26T01:43:58;29.20;42.40
80258;DHT22;69565;37.974;23.708;2023-06-26T01:55:15;29.20;42.90
80258;DHT22;69565;37.974;23.708;2023-06-26T01:57:42;29.20;42.90
80258;DHT22;69565;37.974;23.708;2023-06-26T02:00:10;29.20;43.00
80258;DHT22;69565;37.974;23.708;2023-06-26T02:02:36;29.10;42.90
80258;DHT22;69565;37.974;23.708;2023-06-26T02:05:02;29.10;43.00
80258;DHT22;69565;37.974;23.708;2023-06-26T02:07:28;29.20;43.00
80258;DHT22;69565;37.974;23.708;2023-06-26T02:09:54;29.20;43.00
80258;DHT22;69565;37.974;23.708;2023-06-26T02:12:20;29.20;43.00
80258;DHT22;69565;37.974;23.708;2023-06-26T02:14:46;29.20;42.90
80258;DHT22;69565;37.974;23.708;2023-06-26T02:17:11;29.10;42.80
80258;DHT22;69565;37.974;23.708;2023-06-26T02:19:37;29.10;42.80
80258;DHT22;69565;37.974;23.708;2023-06-26T02:22:10;29.20;42.80
80258;DHT22;69565;37.974;23.708;2023-06-26T02:24:36;29.20;42.80
80258;DHT22;69565;37.974;23.708;2023-06-26T02:27:02;29.20;42.60
80258;DHT22;69565;37.974;23.708;2023-06-26T02:29:27;29.20;42.40
80258;DHT22;69565;37.974;23.708;2023-06-26T02:31:53;29.20;42.40
80258;DHT22;69565;37.974;23.708;2023-06-26T02:34:19;29.20;42.40
80258;DHT22;69565;37.974;23.708;2023-06-26T02:36:44;29.20;42.40
80258;DHT22;69565;37.974;23.708;2023-06-26T02:39:10;29.10;43.30
80258;DHT22;69565;37.974;23.708;2023-06-26T02:41:36;29.20;42.30
80258;DHT22;69565;37.974;23.708;2023-06-26T02:44:02;29.10;42.20
80258;DHT22;69565;37.974;23.708;2023-06-26T02:46:27;29.20;42.20
80258;DHT22;69565;37.974;23.708;2023-06-26T02:48:53;29.20;42.20
80258;DHT22;69565;37.974;23.708;2023-06-26T02:51:19;29.20;42.10
80258;DHT22;69565;37.974;23.708;2023-06-26T02:53:44;29.10;42.10
80258;DHT22;69565;37.974;23.708;2023-06-26T02:56:10;29.20;42.20
80258;DHT22;69565;37.974;23.708;2023-06-26T02:58:36;29.10;42.20
80258;DHT22;69565;37.974;23.708;2023-06-26T03:01:01;29.20;42.30
80258;DHT22;69565;37.974;23.708;2023-06-26T03:03:27;29.20;42.30
80258;DHT22;69565;37.974;23.708;2023-06-26T03:05:53;29.10;42.30
80258;DHT22;69565;37.974;23.708;2023-06-26T03:08:19;29.20;42.30
80258;DHT22;69565;37.974;23.708;2023-06-26T03:10:45;29.10;42.20
80258;DHT22;69565;37.974;23.708;2023-06-26T03:13:10;29.20;42.30
80258;DHT22;69565;37.974;23.708;2023-06-26T03:15:36;29.10;42.40
80258;DHT22;69565;37.974;23.708;2023-06-26T03:18:02;29.10;42.40
80258;DHT22;69565;37.974;23.708;2023-06-26T03:20:28;29.10;42.50
80258;DHT22;69565;37.974;23.708;2023-06-26T03:22:53;29.10;42.60
80258;DHT22;69565;37.974;23.708;2023-06-26T03:25:19;29.10;42.70
80258;DHT22;69565;37.974;23.708;2023-06-26T03:27:45;29.10;42.80
80258;DHT22;69565;37.974;23.708;2023-06-26T03:30:11;29.10;42.90
80258;DHT22;69565;37.974;23.708;2023-06-26T03:32:37;29.10;42.90
80258;DHT22;69565;37.974;23.708;2023-06-26T03:35:02;29.10;42.80
80258;DHT22;69565;37.974;23.708;2023-06-26T03:37:29;29.10;42.60
80258;DHT22;69565;37.974;23.708;2023-06-26T03:39:54;29.20;42.60
80258;DHT22;69565;37.974;23.708;2023-06-26T03:42:20;29.20;42.40
80258;DHT22;69565;37.974;23.708;2023-06-26T03:44:46;29.20;42.30
80258;DHT22;69565;37.974;23.708;2023-06-26T03:47:11;29.20;42.20
80258;DHT22;69565;37.974;23.708;2023-06-26T03:49:37;29.20;42.00
80258;DHT22;69565;37.974;23.708;2023-06-26T03:52:03;29.30;41.90
80258;DHT22;69565;37.974;23.708;2023-06-26T03:54:29;29.30;41.70
80258;DHT22;69565;37.974;23.708;2023-06-26T03:56:54;29.30;41.60
80258;DHT22;69565;37.974;23.708;2023-06-26T03:59:20;29.30;41.50
80258;DHT22;69565;37.974;23.708;2023-06-26T04:01:46;29.40;41.50
80258;DHT22;69565;37.974;23.708;2023-06-26T04:04:11;29.40;41.30
80258;DHT22;69565;37.974;23.708;2023-06-26T04:06:37;29.40;41.20
80258;DHT22;69565;37.974;23.708;2023-06-26T04:09:03;29.40;41.10
80258;DHT22;69565;37.974;23.708;2023-06-26T04:11:29;29.50;41.00
80258;DHT22;69565;37.974;23.708;2023-06-26T04:13:56;29.50;40.90
80258;DHT22;69565;37.974;23.708;2023-06-26T04:16:22;29.60;40.80
80258;DHT22;69565;37.974;23.708;2023-06-26T04:18:52;29.60;40.60
80258;DHT22;69565;37.974;23.708;2023-06-26T04:21:18;29.70;41.10
80258;DHT22;69565;37.974;23.708;2023-06-26T04:23:45;29.70;41.10
80258;DHT22;69565;37.974;23.708;2023-06-26T04:26:11;29.80;41.00
80258;DHT22;69565;37.974;23.708;2023-06-26T04:28:40;29.80;40.80
80258;DHT22;69565;37.974;23.708;2023-06-26T04:31:06;29.80;40.60
80258;DHT22;69565;37.974;23.708;2023-06-26T04:33:34;29.80;40.80
80258;DHT22;69565;37.974;23.708;2023-06-26T04:36:04;29.80;40.70
80258;DHT22;69565;37.974;23.708;2023-06-26T04:38:31;29.80;40.60
80258;DHT22;69565;37.974;23.708;2023-06-26T04:40:57;29.80;40.50
80258;DHT22;69565;37.974;23.708;2023-06-26T04:43:23;29.80;40.40
80258;DHT22;69565;37.974;23.708;2023-06-26T04:45:49;29.80;40.40
80258;DHT22;69565;37.974;23.708;2023-06-26T04:48:14;29.80;40.30
80258;DHT22;69565;37.974;23.708;2023-06-26T04:50:43;29.80;40.30
80258;DHT22;69565;37.974;23.708;2023-06-26T04:53:22;29.80;40.20
80258;DHT22;69565;37.974;23.708;2023-06-26T04:55:49;29.90;40.10
80258;DHT22;69565;37.974;23.708;2023-06-26T04:58:15;29.90;40.00
80258;DHT22;69565;37.974;23.708;2023-06-26T05:00:41;29.90;39.90
80258;DHT22;69565;37.974;23.708;2023-06-26T05:03:14;30.00;39.90
80258;DHT22;69565;37.974;23.708;2023-06-26T05:05:42;29.90;39.80
80258;DHT22;69565;37.974;23.708;2023-06-26T05:08:21;30.00;39.80
80258;DHT22;69565;37.974;23.708;2023-06-26T05:10:47;30.00;39.70
80258;DHT22;69565;37.974;23.708;2023-06-26T05:13:13;30.00;39.60
80258;DHT22;69565;37.974;23.708;2023-06-26T05:15:45;30.10;39.60
80258;DHT22;69565;37.974;23.708;2023-06-26T05:18:11;30.10;39.50
80258;DHT22;69565;37.974;23.708;2023-06-26T05:20:37;30.20;39.40
80258;DHT22;69565;37.974;23.708;2023-06-26T05:23:03;30.30;39.10
80258;DHT22;69565;37.974;23.708;2023-06-26T05:25:30;30.40;38.90
80258;DHT22;69565;37.974;23.708;2023-06-26T05:27:59;30.50;38.60
80258;DHT22;69565;37.974;23.708;2023-06-26T05:30:26;30.60;38.30
80258;DHT22;69565;37.974;23.708;2023-06-26T05:32:54;30.70;39.10
80258;DHT22;69565;37.974;23.708;2023-06-26T05:35:20;30.80;37.90
80258;DHT22;69565;37.974;23.708;2023-06-26T05:37:50;30.80;37.80
80258;DHT22;69565;37.974;23.708;2023-06-26T05:40:17;30.70;37.70
80258;DHT22;69565;37.974;23.708;2023-06-26T05:42:45;30.80;37.60
80258;DHT22;69565;37.974;23.708;2023-06-26T05:45:11;30.80;37.50
80258;DHT22;69565;37.974;23.708;2023-06-26T05:47:37;30.80;37.40
80258;DHT22;69565;37.974;23.708;2023-06-26T05:50:04;30.90;37.30
80258;DHT22;69565;37.974;23.708;2023-06-26T05:52:30;31.00;37.20
80258;DHT22;69565;37.974;23.708;2023-06-26T05:54:56;31.00;37.10
80258;DHT22;69565;37.974;23.708;2023-06-26T05:57:27;31.10;37.00
80258;DHT22;69565;37.974;23.708;2023-06-26T05:59:53;31.20;36.90
80258;DHT22;69565;37.974;23.708;2023-06-26T06:02:20;31.30;36.70
80258;DHT22;69565;37.974;23.708;2023-06-26T06:04:45;31.40;36.40
80258;DHT22;69565;37.974;23.708;2023-06-26T06:07:11;31.50;36.00
80258;DHT22;69565;37.974;23.708;2023-06-26T06:09:37;31.50;35.60
80258;DHT22;69565;37.974;23.708;2023-06-26T06:12:04;31.60;35.30
80258;DHT22;69565;37.974;23.708;2023-06-26T06:14:34;31.70;35.00
80258;DHT22;69565;37.974;23.708;2023-06-26T06:17:01;31.80;34.80
80258;DHT22;69565;37.974;23.708;2023-06-26T06:19:26;31.90;34.50
80258;DHT22;69565;37.974;23.708;2023-06-26T06:21:53;32.00;34.20
80258;DHT22;69565;37.974;23.708;2023-06-26T06:24:19;32.10;33.90
80258;DHT22;69565;37.974;23.708;2023-06-26T06:26:44;32.10;33.70
80258;DHT22;69565;37.974;23.708;2023-06-26T06:29:10;32.20;33.50
80258;DHT22;69565;37.974;23.708;2023-06-26T06:31:36;32.20;33.30
80258;DHT22;69565;37.974;23.708;2023-06-26T06:34:01;32.30;33.20
80258;DHT22;69565;37.974;23.708;2023-06-26T06:36:27;32.50;33.30
80258;DHT22;69565;37.974;23.708;2023-06-26T06:38:53;32.60;33.10
80258;DHT22;69565;37.974;23.708;2023-06-26T06:41:20;32.70;32.90
80258;DHT22;69565;37.974;23.708;2023-06-26T06:43:46;32.80;32.70
80258;DHT22;69565;37.974;23.708;2023-06-26T06:46:11;32.90;32.50
80258;DHT22;69565;37.974;23.708;2023-06-26T06:48:37;33.00;32.30
80258;DHT22;69565;37.974;23.708;2023-06-26T06:51:03;33.10;32.00
80258;DHT22;69565;37.974;23.708;2023-06-26T06:53:31;33.10;31.80
80258;DHT22;69565;37.974;23.708;2023-06-26T06:55:57;33.20;31.80
80258;DHT22;69565;37.974;23.708;2023-06-26T06:58:23;33.30;31.80
80258;DHT22;69565;37.974;23.708;2023-06-26T07:00:49;33.30;31.80
80258;DHT22;69565;37.974;23.708;2023-06-26T07:03:22;33.40;31.80
80258;DHT22;69565;37.974;23.708;2023-06-26T07:05:48;33.50;31.70
80258;DHT22;69565;37.974;23.708;2023-06-26T07:08:13;33.60;31.60
80258;DHT22;69565;37.974;23.708;2023-06-26T07:10:40;33.70;31.50
80258;DHT22;69565;37.974;23.708;2023-06-26T07:13:09;33.80;31.30
80258;DHT22;69565;37.974;23.708;2023-06-26T07:15:40;33.80;31.10
80258;DHT22;69565;37.974;23.708;2023-06-26T07:18:18;33.90;31.00
80258;DHT22;69565;37.974;23.708;2023-06-26T07:20:48;33.90;30.90
80258;DHT22;69565;37.974;23.708;2023-06-26T07:23:13;34.00;30.80
80258;DHT22;69565;37.974;23.708;2023-06-26T07:25:39;34.10;30.70
80258;DHT22;69565;37.974;23.708;2023-06-26T07:28:12;34.20;30.70
80258;DHT22;69565;37.974;23.708;2023-06-26T07:30:38;34.20;30.50
80258;DHT22;69565;37.974;23.708;2023-06-26T07:33:04;34.20;30.50
80258;DHT22;69565;37.974;23.708;2023-06-26T07:35:31;34.20;30.40
80258;DHT22;69565;37.974;23.708;2023-06-26T07:37:57;34.30;30.40
80258;DHT22;69565;37.974;23.708;2023-06-26T07:40:23;34.30;30.40
80258;DHT22;69565;37.974;23.708;2023-06-26T07:42:48;34.30;30.20
80258;DHT22;69565;37.974;23.708;2023-06-26T07:45:15;34.30;30.30
80258;DHT22;69565;37.974;23.708;2023-06-26T07:47:41;34.30;30.30
80258;DHT22;69565;37.974;23.708;2023-06-26T07:50:07;34.20;30.30
80258;DHT22;69565;37.974;23.708;2023-06-26T07:52:34;34.00;30.40
80258;DHT22;69565;37.974;23.708;2023-06-26T07:55:00;33.80;30.60
80258;DHT22;69565;37.974;23.708;2023-06-26T07:57:29;33.70;30.90
80258;DHT22;69565;37.974;23.708;2023-06-26T07:59:55;33.60;31.00
80258;DHT22;69565;37.974;23.708;2023-06-26T08:02:21;33.40;31.10
80258;DHT22;69565;37.974;23.708;2023-06-26T08:04:50;33.30;31.40
80258;DHT22;69565;37.974;23.708;2023-06-26T08:07:16;33.30;31.60
80258;DHT22;69565;37.974;23.708;2023-06-26T08:09:41;33.20;31.60
80258;DHT22;69565;37.974;23.708;2023-06-26T08:12:07;33.10;31.60
80258;DHT22;69565;37.974;23.708;2023-06-26T08:14:36;33.10;31.60
80258;DHT22;69565;37.974;23.708;2023-06-26T08:17:02;33.00;31.70
80258;DHT22;69565;37.974;23.708;2023-06-26T08:19:27;33.00;31.70
80258;DHT22;69565;37.974;23.708;2023-06-26T08:21:53;32.90;31.80
80258;DHT22;69565;37.974;23.708;2023-06-26T08:24:19;32.90;31.80
80258;DHT22;69565;37.974;23.708;2023-06-26T08:26:46;32.80;31.80
80258;DHT22;69565;37.974;23.708;2023-06-26T08:29:12;32.80;31.90
80258;DHT22;69565;37.974;23.708;2023-06-26T08:31:39;32.70;31.90
80258;DHT22;69565;37.974;23.708;2023-06-26T08:34:05;32.70;32.00
80258;DHT22;69565;37.974;23.708;2023-06-26T08:36:37;32.70;32.00
80258;DHT22;69565;37.974;23.708;2023-06-26T08:39:03;32.60;32.00
80258;DHT22;69565;37.974;23.708;2023-06-26T08:41:30;32.60;32.00
80258;DHT22;69565;37.974;23.708;2023-06-26T08:44:00;32.60;32.00
80258;DHT22;69565;37.974;23.708;2023-06-26T08:46:26;32.60;32.00
80258;DHT22;69565;37.974;23.708;2023-06-26T08:49:29;32.50;32.00
80258;DHT22;69565;37.974;23.708;2023-06-26T08:52:31;32.50;31.90
80258;DHT22;69565;37.974;23.708;2023-06-26T08:54:59;32.60;31.80
80258;DHT22;69565;37.974;23.708;2023-06-26T08:57:30;32.50;31.80
80258;DHT22;69565;37.974;23.708;2023-06-26T08:59:57;32.50;31.70
80258;DHT22;69565;37.974;23.708;2023-06-26T09:02:23;32.50;31.60
80258;DHT22;69565;37.974;23.708;2023-06-26T09:04:50;32.50;31.70
80258;DHT22;69565;37.974;23.708;2023-06-26T09:07:16;32.50;31.70
80258;DHT22;69565;37.974;23.708;2023-06-26T09:09:43;32.50;31.70
80258;DHT22;69565;37.974;23.708;2023-06-26T09:12:10;32.50;31.80
80258;DHT22;69565;37.974;23.708;2023-06-26T09:14:37;32.50;31.80
80258;DHT22;69565;37.974;23.708;2023-06-26T09:17:03;32.50;31.80
80258;DHT22;69565;37.974;23.708;2023-06-26T09:19:29;32.50;31.80
80258;DHT22;69565;37.974;23.708;2023-06-26T09:21:55;32.50;31.80
80258;DHT22;69565;37.974;23.708;2023-06-26T09:24:21;32.50;31.90
80258;DHT22;69565;37.974;23.708;2023-06-26T09:26:48;32.50;32.00
80258;DHT22;69565;37.974;23.708;2023-06-26T09:29:15;32.50;32.00
80258;DHT22;69565;37.974;23.708;2023-06-26T09:31:44;32.40;32.10
80258;DHT22;69565;37.974;23.708;2023-06-26T09:34:10;32.50;32.20
80258;DHT22;69565;37.974;23.708;2023-06-26T09:36:36;32.50;32.30
80258;DHT22;69565;37.974;23.708;2023-06-26T09:39:03;32.50;32.30
80258;DHT22;69565;37.974;23.708;2023-06-26T09:41:30;32.40;32.40
80258;DHT22;69565;37.974;23.708;2023-06-26T09:44:02;32.30;32.30
80258;DHT22;69565;37.974;23.708;2023-06-26T09:46:29;32.30;32.30
80258;DHT22;69565;37.974;23.708;2023-06-26T09:49:03;32.30;32.40
80258;DHT22;69565;37.974;23.708;2023-06-26T09:51:33;32.30;32.40
80258;DHT22;69565;37.974;23.708;2023-06-26T09:54:00;32.30;32.40
80258;DHT22;69565;37.974;23.708;2023-06-26T09:56:30;32.30;32.40
80258;DHT22;69565;37.974;23.708;2023-06-26T09:59:01;32.30;32.30
80258;DHT22;69565;37.974;23.708;2023-06-26T10:01:27;32.30;32.30
80258;DHT22;69565;37.974;23.708;2023-06-26T10:03:54;32.30;32.40
80258;DHT22;69565;37.974;23.708;2023-06-26T10:06:24;32.30;32.50
80258;DHT22;69565;37.974;23.708;2023-06-26T10:08:51;32.40;32.60
80258;DHT22;69565;37.974;23.708;2023-06-26T10:11:21;32.30;32.70
80258;DHT22;69565;37.974;23.708;2023-06-26T10:13:49;32.30;32.70
80258;DHT22;69565;37.974;23.708;2023-06-26T10:16:22;32.30;32.70
80258;DHT22;69565;37.974;23.708;2023-06-26T10:18:50;32.30;32.90
80258;DHT22;69565;37.974;23.708;2023-06-26T10:21:22;32.20;33.00
80258;DHT22;69565;37.974;23.708;2023-06-26T10:23:49;32.10;33.10
80258;DHT22;69565;37.974;23.708;2023-06-26T10:26:16;32.10;33.10
80258;DHT22;69565;37.974;23.708;2023-06-26T10:28:44;32.00;33.20
80258;DHT22;69565;37.974;23.708;2023-06-26T10:31:11;32.00;33.40
80258;DHT22;69565;37.974;23.708;2023-06-26T10:33:39;32.00;33.60
80258;DHT22;69565;37.974;23.708;2023-06-26T10:36:27;31.90;33.50
80258;DHT22;69565;37.974;23.708;2023-06-26T10:38:58;31.90;33.80
80258;DHT22;69565;37.974;23.708;2023-06-26T10:41:27;31.90;34.10
80258;DHT22;69565;37.974;23.708;2023-06-26T10:46:24;31.90;34.50
80258;DHT22;69565;37.974;23.708;2023-06-26T10:48:59;31.90;34.70
80258;DHT22;69565;37.974;23.708;2023-06-26T10:51:29;31.90;34.90
80258;DHT22;69565;37.974;23.708;2023-06-26T10:53:58;31.80;35.30
80258;DHT22;69565;37.974;23.708;2023-06-26T10:56:46;31.90;35.70
80258;DHT22;69565;37.974;23.708;2023-06-26T10:59:20;31.80;35.90
80258;DHT22;69565;37.974;23.708;2023-06-26T11:02:08;31.80;36.20
80258;DHT22;69565;37.974;23.708;2023-06-26T11:07:35;31.70;36.90
80258;DHT22;69565;37.974;23.708;2023-06-26T11:10:13;31.80;37.30
80258;DHT22;69565;37.974;23.708;2023-06-26T11:12:43;31.80;37.40
80258;DHT22;69565;37.974;23.708;2023-06-26T11:15:16;31.70;37.70
80258;DHT22;69565;37.974;23.708;2023-06-26T11:17:43;31.70;38.10
80258;DHT22;69565;37.974;23.708;2023-06-26T11:20:13;31.70;38.40
80258;DHT22;69565;37.974;23.708;2023-06-26T11:22:42;31.70;38.90
80258;DHT22;69565;37.974;23.708;2023-06-26T11:25:09;31.70;39.30
80258;DHT22;69565;37.974;23.708;2023-06-26T11:30:09;31.60;39.80
80258;DHT22;69565;37.974;23.708;2023-06-26T11:32:36;31.70;40.00
80258;DHT22;69565;37.974;23.708;2023-06-26T11:35:03;31.70;40.00
80258;DHT22;69565;37.974;23.708;2023-06-26T11:37:31;31.60;40.20
80258;DHT22;69565;37.974;23.708;2023-06-26T11:39:57;31.70;40.40
80258;DHT22;69565;37.974;23.708;2023-06-26T11:42:24;31.70;40.50
80258;DHT22;69565;37.974;23.708;2023-06-26T11:44:53;31.70;40.70
80258;DHT22;69565;37.974;23.708;2023-06-26T11:47:20;31.60;40.60
80258;DHT22;69565;37.974;23.708;2023-06-26T11:49:48;31.60;40.80
80258;DHT22;69565;37.974;23.708;2023-06-26T11:52:15;31.50;40.70
80258;DHT22;69565;37.974;23.708;2023-06-26T11:54:54;31.50;40.70
80258;DHT22;69565;37.974;23.708;2023-06-26T11:57:20;31.50;40.70
80258;DHT22;69565;37.974;23.708;2023-06-26T11:59:46;31.50;40.70
80258;DHT22;69565;37.974;23.708;2023-06-26T12:02:14;31.50;40.70
80258;DHT22;69565;37.974;23.708;2023-06-26T12:04:49;31.50;40.60
80258;DHT22;69565;37.974;23.708;2023-06-26T12:07:15;31.60;40.70
80258;DHT22;69565;37.974;23.708;2023-06-26T12:09:43;31.50;40.50
80258;DHT22;69565;37.974;23.708;2023-06-26T12:12:12;31.60;40.60
80258;DHT22;69565;37.974;23.708;2023-06-26T12:14:39;31.50;40.40
80258;DHT22;69565;37.974;23.708;2023-06-26T12:20:51;31.50;40.70
80258;DHT22;69565;37.974;23.708;2023-06-26T12:23:17;31.50;40.70
80258;DHT22;69565;37.974;23.708;2023-06-26T12:25:43;31.50;40.80
80258;DHT22;69565;37.974;23.708;2023-06-26T12:28:18;31.50;40.90
80258;DHT22;69565;37.974;23.708;2023-06-26T12:31:11;31.50;40.80
80258;DHT22;69565;37.974;23.708;2023-06-26T12:33:33;31.50;40.70
80258;DHT22;69565;37.974;23.708;2023-06-26T12:36:00;31.50;40.70
80258;DHT22;69565;37.974;23.708;2023-06-26T12:38:33;31.50;41.80
80258;DHT22;69565;37.974;23.708;2023-06-26T12:40:59;31.50;40.70
80258;DHT22;69565;37.974;23.708;2023-06-26T12:43:26;31.50;40.60
80258;DHT22;69565;37.974;23.708;2023-06-26T12:45:58;31.50;40.60
80258;DHT22;69565;37.974;23.708;2023-06-26T12:48:43;31.50;40.60
80258;DHT22;69565;37.974;23.708;2023-06-26T12:51:12;31.50;40.60
80258;DHT22;69565;37.974;23.708;2023-06-26T12:53:38;31.50;40.60
80258;DHT22;69565;37.974;23.708;2023-06-26T12:56:10;31.50;40.60
80258;DHT22;69565;37.974;23.708;2023-06-26T12:58:37;31.50;40.70
80258;DHT22;69565;37.974;23.708;2023-06-26T13:01:05;31.50;40.60
80258;DHT22;69565;37.974;23.708;2023-06-26T13:03:36;31.50;40.60
80258;DHT22;69565;37.974;23.708;2023-06-26T13:06:02;31.50;40.60
80258;DHT22;69565;37.974;23.708;2023-06-26T13:08:28;31.50;40.50
80258;DHT22;69565;37.974;23.708;2023-06-26T13:10:54;31.50;40.40
80258;DHT22;69565;37.974;23.708;2023-06-26T13:13:20;31.50;40.50
80258;DHT22;69565;37.974;23.708;2023-06-26T13:15:45;31.50;40.50
80258;DHT22;69565;37.974;23.708;2023-06-26T13:18:11;31.50;40.70
80258;DHT22;69565;37.974;23.708;2023-06-26T13:20:37;31.40;40.80
80258;DHT22;69565;37.974;23.708;2023-06-26T13:23:02;31.40;40.90
80258;DHT22;69565;37.974;23.708;2023-06-26T13:25:28;31.50;41.10
80258;DHT22;69565;37.974;23.708;2023-06-26T13:27:54;31.50;41.30
80258;DHT22;69565;37.974;23.708;2023-06-26T13:30:21;31.50;41.40
80258;DHT22;69565;37.974;23.708;2023-06-26T13:32:47;31.40;41.40
80258;DHT22;69565;37.974;23.708;2023-06-26T13:35:12;31.50;41.40
80258;DHT22;69565;37.974;23.708;2023-06-26T13:37:40;31.50;41.30
80258;DHT22;69565;37.974;23.708;2023-06-26T13:40:07;31.40;41.20
80258;DHT22;69565;37.974;23.708;2023-06-26T13:42:33;31.40;41.20
80258;DHT22;69565;37.974;23.708;2023-06-26T13:44:58;31.40;41.40
80258;DHT22;69565;37.974;23.708;2023-06-26T13:47:24;31.40;41.50
80258;DHT22;69565;37.974;23.708;2023-06-26T13:49:50;31.40;42.60
80258;DHT22;69565;37.974;23.708;2023-06-26T13:52:16;31.40;41.60
80258;DHT22;69565;37.974;23.708;2023-06-26T13:54:41;31.40;41.60
80258;DHT22;69565;37.974;23.708;2023-06-26T13:57:07;31.40;41.60
80258;DHT22;69565;37.974;23.708;2023-06-26T13:59:37;31.30;41.50
80258;DHT22;69565;37.974;23.708;2023-06-26T14:02:03;31.30;41.50
80258;DHT22;69565;37.974;23.708;2023-06-26T14:04:30;31.20;41.40
80258;DHT22;69565;37.974;23.708;2023-06-26T14:06:56;31.20;41.30
80258;DHT22;69565;37.974;23.708;2023-06-26T14:09:22;31.20;41.20
80258;DHT22;69565;37.974;23.708;2023-06-26T14:11:47;31.20;41.10
80258;DHT22;69565;37.974;23.708;2023-06-26T14:14:13;31.20;41.10
80258;DHT22;69565;37.974;23.708;2023-06-26T14:16:39;31.10;41.00
80258;DHT22;69565;37.974;23.708;2023-06-26T14:19:07;31.10;41.10
80258;DHT22;69565;37.974;23.708;2023-06-26T14:21:38;31.10;41.10
80258;DHT22;69565;37.974;23.708;2023-06-26T14:24:04;31.10;41.10
80258;DHT22;69565;37.974;23.708;2023-06-26T14:26:29;31.10;41.20
80258;DHT22;69565;37.974;23.708;2023-06-26T14:28:56;31.00;41.10
80258;DHT22;69565;37.974;23.708;2023-06-26T14:31:21;31.00;41.10
80258;DHT22;69565;37.974;23.708;2023-06-26T14:33:47;31.00;41.10
80258;DHT22;69565;37.974;23.708;2023-06-26T14:36:13;31.00;41.10
80258;DHT22;69565;37.974;23.708;2023-06-26T14:38:38;31.00;41.00
80258;DHT22;69565;37.974;23.708;2023-06-26T14:41:04;31.00;41.00
80258;DHT22;69565;37.974;23.708;2023-06-26T14:43:30;31.00;41.10
80258;DHT22;69565;37.974;23.708;2023-06-26T14:45:55;31.00;41.00
80258;DHT22;69565;37.974;23.708;2023-06-26T14:48:21;31.00;41.00
80258;DHT22;69565;37.974;23.708;2023-06-26T14:50:50;31.00;41.00
80258;DHT22;69565;37.974;23.708;2023-06-26T14:53:16;31.10;41.00
80258;DHT22;69565;37.974;23.708;2023-06-26T14:55:42;31.00;41.00
80258;DHT22;69565;37.974;23.708;2023-06-26T14:58:07;31.00;41.00
80258;DHT22;69565;37.974;23.708;2023-06-26T15:00:33;31.00;41.00
80258;DHT22;69565;37.974;23.708;2023-06-26T15:02:59;31.00;41.00
80258;DHT22;69565;37.974;23.708;2023-06-26T15:05:24;31.00;40.90
80258;DHT22;69565;37.974;23.708;2023-06-26T15:07:50;30.90;40.90
80258;DHT22;69565;37.974;23.708;2023-06-26T15:10:16;30.90;40.70
80258;DHT22;69565;37.974;23.708;2023-06-26T15:12:42;30.90;40.60
80258;DHT22;69565;37.974;23.708;2023-06-26T15:15:09;30.90;40.60
80258;DHT22;69565;37.974;23.708;2023-06-26T15:17:35;30.90;40.70
80258;DHT22;69565;37.974;23.708;2023-06-26T15:20:00;30.80;40.60
80258;DHT22;69565;37.974;23.708;2023-06-26T15:22:26;30.80;40.60
80258;DHT22;69565;37.974;23.708;2023-06-26T15:24:53;30.80;40.60
80258;DHT22;69565;37.974;23.708;2023-06-26T15:27:19;30.80;40.60
80258;DHT22;69565;37.974;23.708;2023-06-26T15:29:45;30.80;40.50
80258;DHT22;69565;37.974;23.708;2023-06-26T15:32:11;30.90;40.60
80258;DHT22;69565;37.974;23.708;2023-06-26T15:34:36;30.90;40.60
80258;DHT22;69565;37.974;23.708;2023-06-26T15:37:02;30.90;40.50
80258;DHT22;69565;37.974;23.708;2023-06-26T15:39:28;30.90;40.50
80258;DHT22;69565;37.974;23.708;2023-06-26T15:41:53;30.90;40.50